sensor_id;sensor_type;location;lat;lon;timestamp;pressure;altitude;pressure_sealevel;temperature
24201;BMP280;2801;50.972;7.856;2024-03-06T00:00:18;97647.41;;;6.02
24201;BMP280;2801;50.972;7.856;2024-03-06T00:02:46;97653.84;;;5.96
24201;BMP280;2801;50.972;7.856;2024-03-06T00:05:16;97656.31;;;5.93
24201;BMP280;2801;50.972;7.856;2024-03-06T00:07:43;97654.22;;;5.90
24201;BMP280;2801;50.972;7.856;2024-03-06T00:10:10;97657.97;;;5.89
24201;BMP280;2801;50.972;7.856;2024-03-06T00:12:37;97652.66;;;5.89
24201;BMP280;2801;50.972;7.856;2024-03-06T00:15:05;97662.28;;;5.85
24201;BMP280;2801;50.972;7.856;2024-03-06T00:17:32;97662.09;;;5.76
24201;BMP280;2801;50.972;7.856;2024-03-06T00:19:59;97667.81;;;5.65
24201;BMP280;2801;50.972;7.856;2024-03-06T00:22:26;97675.09;;;5.59
24201;BMP280;2801;50.972;7.856;2024-03-06T00:24:53;97672.44;;;5.59
24201;BMP280;2801;50.972;7.856;2024-03-06T00:27:20;97666.06;;;5.60
24201;BMP280;2801;50.972;7.856;2024-03-06T00:29:47;97671.69;;;5.54
24201;BMP280;2801;50.972;7.856;2024-03-06T00:32:14;97676.25;;;5.53
24201;BMP280;2801;50.972;7.856;2024-03-06T00:34:41;97668.81;;;5.50
24201;BMP280;2801;50.972;7.856;2024-03-06T00:37:09;97682.06;;;5.55
24201;BMP280;2801;50.972;7.856;2024-03-06T00:39:35;97681.84;;;5.52
24201;BMP280;2801;50.972;7.856;2024-03-06T00:46:10;97684.69;;;5.37
24201;BMP280;2801;50.972;7.856;2024-03-06T00:48:37;97692.03;;;5.45
24201;BMP280;2801;50.972;7.856;2024-03-06T00:51:08;97689.94;;;5.42
24201;BMP280;2801;50.972;7.856;2024-03-06T00:53:35;97703.69;;;5.49
24201;BMP280;2801;50.972;7.856;2024-03-06T00:56:03;97702.84;;;5.53
24201;BMP280;2801;50.972;7.856;2024-03-06T00:58:31;97699.38;;;5.53
24201;BMP280;2801;50.972;7.856;2024-03-06T01:00:58;97704.97;;;5.51
24201;BMP280;2801;50.972;7.856;2024-03-06T01:03:25;97704.94;;;5.56
24201;BMP280;2801;50.972;7.856;2024-03-06T01:05:53;97704.69;;;5.53
24201;BMP280;2801;50.972;7.856;2024-03-06T01:08:21;97719.81;;;5.57
24201;BMP280;2801;50.972;7.856;2024-03-06T01:10:49;97719.84;;;5.52
24201;BMP280;2801;50.972;7.856;2024-03-06T01:13:18;97723.09;;;5.49
24201;BMP280;2801;50.972;7.856;2024-03-06T01:15:46;97727.41;;;5.45
24201;BMP280;2801;50.972;7.856;2024-03-06T01:18:13;97723.41;;;5.43
24201;BMP280;2801;50.972;7.856;2024-03-06T01:20:41;97719.72;;;5.39
24201;BMP280;2801;50.972;7.856;2024-03-06T01:23:08;97716.59;;;5.37
24201;BMP280;2801;50.972;7.856;2024-03-06T01:25:35;97716.59;;;5.37
24201;BMP280;2801;50.972;7.856;2024-03-06T01:28:03;97722.13;;;5.40
24201;BMP280;2801;50.972;7.856;2024-03-06T01:30:30;97724.78;;;5.40
24201;BMP280;2801;50.972;7.856;2024-03-06T01:32:58;97724.78;;;5.40
24201;BMP280;2801;50.972;7.856;2024-03-06T01:35:25;97728.03;;;5.37
24201;BMP280;2801;50.972;7.856;2024-03-06T01:37:52;97717.97;;;5.29
24201;BMP280;2801;50.972;7.856;2024-03-06T01:40:20;97726.41;;;5.36
24201;BMP280;2801;50.972;7.856;2024-03-06T01:42:47;97726.13;;;5.38
24201;BMP280;2801;50.972;7.856;2024-03-06T01:45:18;97726.41;;;5.36
24201;BMP280;2801;50.972;7.856;2024-03-06T01:47:47;97727.50;;;5.35
24201;BMP280;2801;50.972;7.856;2024-03-06T01:50:14;97733.63;;;5.36
24201;BMP280;2801;50.972;7.856;2024-03-06T01:52:42;97729.06;;;5.36
24201;BMP280;2801;50.972;7.856;2024-03-06T01:55:13;97725.06;;;5.39
24201;BMP280;2801;50.972;7.856;2024-03-06T01:57:42;97728.25;;;5.41
24201;BMP280;2801;50.972;7.856;2024-03-06T02:00:11;97726.69;;;5.35
24201;BMP280;2801;50.972;7.856;2024-03-06T02:02:42;97734.22;;;5.28
24201;BMP280;2801;50.972;7.856;2024-03-06T02:05:10;97728.34;;;5.31
24201;BMP280;2801;50.972;7.856;2024-03-06T02:07:44;97738.69;;;5.32
24201;BMP280;2801;50.972;7.856;2024-03-06T02:10:11;97732.00;;;5.35
24201;BMP280;2801;50.972;7.856;2024-03-06T02:12:39;97720.88;;;5.33
24201;BMP280;2801;50.972;7.856;2024-03-06T02:15:07;97731.78;;;5.31
24201;BMP280;2801;50.972;7.856;2024-03-06T02:17:35;97724.38;;;5.28
24201;BMP280;2801;50.972;7.856;2024-03-06T02:20:02;97733.72;;;5.26
24201;BMP280;2801;50.972;7.856;2024-03-06T02:22:33;97724.16;;;5.25
24201;BMP280;2801;50.972;7.856;2024-03-06T02:25:00;97718.59;;;5.21
24201;BMP280;2801;50.972;7.856;2024-03-06T02:27:27;97728.47;;;5.21
24201;BMP280;2801;50.972;7.856;2024-03-06T02:29:54;97727.72;;;5.15
24201;BMP280;2801;50.972;7.856;2024-03-06T02:32:23;97725.38;;;5.09
24201;BMP280;2801;50.972;7.856;2024-03-06T02:34:51;97718.81;;;5.01
24201;BMP280;2801;50.972;7.856;2024-03-06T02:37:18;97732.31;;;5.05
24201;BMP280;2801;50.972;7.856;2024-03-06T02:39:45;97726.09;;;4.91
24201;BMP280;2801;50.972;7.856;2024-03-06T02:42:12;97731.16;;;4.92
24201;BMP280;2801;50.972;7.856;2024-03-06T02:44:39;97730.91;;;4.89
24201;BMP280;2801;50.972;7.856;2024-03-06T02:47:07;97719.50;;;4.83
24201;BMP280;2801;50.972;7.856;2024-03-06T02:49:34;97726.13;;;4.86
24201;BMP280;2801;50.972;7.856;2024-03-06T02:52:01;97721.41;;;4.83
24201;BMP280;2801;50.972;7.856;2024-03-06T02:54:28;97733.19;;;4.72
24201;BMP280;2801;50.972;7.856;2024-03-06T02:56:55;97721.59;;;4.58
24201;BMP280;2801;50.972;7.856;2024-03-06T02:59:22;97734.88;;;4.58
24201;BMP280;2801;50.972;7.856;2024-03-06T03:01:50;97731.69;;;4.61
24201;BMP280;2801;50.972;7.856;2024-03-06T03:04:18;97744.09;;;4.65
24201;BMP280;2801;50.972;7.856;2024-03-06T03:06:45;97732.72;;;4.65
24201;BMP280;2801;50.972;7.856;2024-03-06T03:09:12;97738.72;;;4.75
24201;BMP280;2801;50.972;7.856;2024-03-06T03:11:39;97730.75;;;4.75
24201;BMP280;2801;50.972;7.856;2024-03-06T03:14:06;97746.13;;;4.78
24201;BMP280;2801;50.972;7.856;2024-03-06T03:16:33;97742.13;;;4.81
24201;BMP280;2801;50.972;7.856;2024-03-06T03:19:02;97749.53;;;4.84
24201;BMP280;2801;50.972;7.856;2024-03-06T03:21:29;97748.47;;;4.85
24201;BMP280;2801;50.972;7.856;2024-03-06T03:23:56;97761.41;;;4.91
24201;BMP280;2801;50.972;7.856;2024-03-06T03:26:23;97761.41;;;4.91
24201;BMP280;2801;50.972;7.856;2024-03-06T03:28:50;97755.88;;;4.88
24201;BMP280;2801;50.972;7.856;2024-03-06T03:31:17;97763.56;;;4.89
24201;BMP280;2801;50.972;7.856;2024-03-06T03:33:44;97762.78;;;4.89
24201;BMP280;2801;50.972;7.856;2024-03-06T03:36:11;97761.19;;;4.88
24201;BMP280;2801;50.972;7.856;2024-03-06T03:38:39;97764.63;;;4.88
24201;BMP280;2801;50.972;7.856;2024-03-06T03:41:11;97781.13;;;4.85
24201;BMP280;2801;50.972;7.856;2024-03-06T03:43:43;97772.66;;;4.83
24201;BMP280;2801;50.972;7.856;2024-03-06T03:46:10;97778.75;;;4.84
24201;BMP280;2801;50.972;7.856;2024-03-06T03:48:37;97787.00;;;4.82
24201;BMP280;2801;50.972;7.856;2024-03-06T03:51:05;97784.66;;;4.76
24201;BMP280;2801;50.972;7.856;2024-03-06T03:53:34;97789.72;;;4.72
24201;BMP280;2801;50.972;7.856;2024-03-06T03:56:02;97790.81;;;4.71
24201;BMP280;2801;50.972;7.856;2024-03-06T03:58:30;97786.31;;;4.67
24201;BMP280;2801;50.972;7.856;2024-03-06T04:00:57;97788.69;;;4.68
24201;BMP280;2801;50.972;7.856;2024-03-06T04:03:24;97794.53;;;4.70
24201;BMP280;2801;50.972;7.856;2024-03-06T04:05:51;97799.31;;;4.68
24201;BMP280;2801;50.972;7.856;2024-03-06T04:08:19;97800.91;;;4.69
24201;BMP280;2801;50.972;7.856;2024-03-06T04:10:46;97797.19;;;4.70
24201;BMP280;2801;50.972;7.856;2024-03-06T04:13:15;97794.56;;;4.65
24201;BMP280;2801;50.972;7.856;2024-03-06T04:15:43;97794.06;;;4.63
24201;BMP280;2801;50.972;7.856;2024-03-06T04:18:10;97801.50;;;4.61
24201;BMP280;2801;50.972;7.856;2024-03-06T04:20:37;97803.09;;;4.62
24201;BMP280;2801;50.972;7.856;2024-03-06T04:23:04;97808.41;;;4.62
24201;BMP280;2801;50.972;7.856;2024-03-06T04:25:31;97812.38;;;4.65
24201;BMP280;2801;50.972;7.856;2024-03-06T04:27:59;97817.69;;;4.65
24201;BMP280;2801;50.972;7.856;2024-03-06T04:30:25;97818.19;;;4.67
24201;BMP280;2801;50.972;7.856;2024-03-06T04:32:52;97829.06;;;4.70
24201;BMP280;2801;50.972;7.856;2024-03-06T04:35:19;97824.78;;;4.69
24201;BMP280;2801;50.972;7.856;2024-03-06T04:37:46;97825.59;;;4.70
24201;BMP280;2801;50.972;7.856;2024-03-06T04:40:13;97833.81;;;4.73
24201;BMP280;2801;50.972;7.856;2024-03-06T04:42:48;97837.00;;;4.75
24201;BMP280;2801;50.972;7.856;2024-03-06T04:45:17;97827.66;;;4.78
24201;BMP280;2801;50.972;7.856;2024-03-06T04:47:44;97826.09;;;4.77
24201;BMP280;2801;50.972;7.856;2024-03-06T04:50:12;97827.72;;;4.73
24201;BMP280;2801;50.972;7.856;2024-03-06T04:52:43;97834.56;;;4.79
24201;BMP280;2801;50.972;7.856;2024-03-06T04:55:11;97837.97;;;4.84
24201;BMP280;2801;50.972;7.856;2024-03-06T04:57:43;97834.50;;;4.89
24201;BMP280;2801;50.972;7.856;2024-03-06T05:00:12;97831.34;;;4.87
24201;BMP280;2801;50.972;7.856;2024-03-06T05:02:39;97830.50;;;4.91
24201;BMP280;2801;50.972;7.856;2024-03-06T05:05:27;97833.41;;;4.95
24201;BMP280;2801;50.972;7.856;2024-03-06T05:08:11;97833.13;;;4.96
24201;BMP280;2801;50.972;7.856;2024-03-06T05:11:01;97840.00;;;4.97
24201;BMP280;2801;50.972;7.856;2024-03-06T05:13:46;97842.94;;;4.96
24201;BMP280;2801;50.972;7.856;2024-03-06T05:16:31;97840.34;;;4.91
24201;BMP280;2801;50.972;7.856;2024-03-06T05:19:15;97844.31;;;4.88
24201;BMP280;2801;50.972;7.856;2024-03-06T05:22:00;97846.25;;;4.83
24201;BMP280;2801;50.972;7.856;2024-03-06T05:24:45;97848.91;;;4.78
24201;BMP280;2801;50.972;7.856;2024-03-06T05:27:29;97848.97;;;4.73
24201;BMP280;2801;50.972;7.856;2024-03-06T05:30:14;97855.63;;;4.70
24201;BMP280;2801;50.972;7.856;2024-03-06T05:32:58;97853.78;;;4.66
24201;BMP280;2801;50.972;7.856;2024-03-06T05:35:43;97866.25;;;4.70
24201;BMP280;2801;50.972;7.856;2024-03-06T05:38:28;97863.31;;;4.72
24201;BMP280;2801;50.972;7.856;2024-03-06T05:41:12;97864.34;;;4.76
24201;BMP280;2801;50.972;7.856;2024-03-06T05:43:57;97867.78;;;4.76
24201;BMP280;2801;50.972;7.856;2024-03-06T05:46:41;97868.59;;;4.77
24201;BMP280;2801;50.972;7.856;2024-03-06T05:49:27;97873.66;;;4.73
24201;BMP280;2801;50.972;7.856;2024-03-06T05:52:12;97883.72;;;4.76
24201;BMP280;2801;50.972;7.856;2024-03-06T05:54:57;97894.63;;;4.75
24201;BMP280;2801;50.972;7.856;2024-03-06T05:57:41;97898.06;;;4.75
24201;BMP280;2801;50.972;7.856;2024-03-06T06:00:29;97902.84;;;4.78
24201;BMP280;2801;50.972;7.856;2024-03-06T06:02:57;97902.81;;;4.83
24201;BMP280;2801;50.972;7.856;2024-03-06T06:05:23;97894.06;;;4.83
24201;BMP280;2801;50.972;7.856;2024-03-06T06:07:51;97902.00;;;4.88
24201;BMP280;2801;50.972;7.856;2024-03-06T06:10:18;97908.59;;;4.90
24201;BMP280;2801;50.972;7.856;2024-03-06T06:12:48;97908.88;;;4.89
24201;BMP280;2801;50.972;7.856;2024-03-06T06:15:16;97919.22;;;4.90
24201;BMP280;2801;50.972;7.856;2024-03-06T06:17:43;97917.66;;;4.89
24201;BMP280;2801;50.972;7.856;2024-03-06T06:20:13;97925.31;;;4.96
24201;BMP280;2801;50.972;7.856;2024-03-06T06:22:45;97935.41;;;4.99
24201;BMP280;2801;50.972;7.856;2024-03-06T06:25:13;97932.97;;;5.02
24201;BMP280;2801;50.972;7.856;2024-03-06T06:27:40;97935.09;;;5.05
24201;BMP280;2801;50.972;7.856;2024-03-06T06:30:08;97944.91;;;5.10
24201;BMP280;2801;50.972;7.856;2024-03-06T06:32:40;97929.44;;;5.12
24201;BMP280;2801;50.972;7.856;2024-03-06T06:35:12;97947.22;;;5.16
24201;BMP280;2801;50.972;7.856;2024-03-06T06:37:41;97951.19;;;5.19
24201;BMP280;2801;50.972;7.856;2024-03-06T06:40:09;97950.69;;;5.17
24201;BMP280;2801;50.972;7.856;2024-03-06T06:42:37;97950.09;;;5.25
24201;BMP280;2801;50.972;7.856;2024-03-06T06:45:04;97959.13;;;5.29
24201;BMP280;2801;50.972;7.856;2024-03-06T06:47:36;97953.53;;;5.30
24201;BMP280;2801;50.972;7.856;2024-03-06T06:50:04;97972.63;;;5.32
24201;BMP280;2801;50.972;7.856;2024-03-06T06:52:32;97971.81;;;5.37
24201;BMP280;2801;50.972;7.856;2024-03-06T06:55:01;97969.66;;;5.39
24201;BMP280;2801;50.972;7.856;2024-03-06T06:57:30;97969.91;;;5.42
24201;BMP280;2801;50.972;7.856;2024-03-06T06:59:57;97976.53;;;5.45
24201;BMP280;2801;50.972;7.856;2024-03-06T07:02:24;97964.59;;;5.42
24201;BMP280;2801;50.972;7.856;2024-03-06T07:04:52;97965.91;;;5.45
24201;BMP280;2801;50.972;7.856;2024-03-06T07:07:20;97976.75;;;5.53
24201;BMP280;2801;50.972;7.856;2024-03-06T07:09:47;97978.28;;;5.59
24201;BMP280;2801;50.972;7.856;2024-03-06T07:12:14;97970.28;;;5.59
24201;BMP280;2801;50.972;7.856;2024-03-06T07:14:41;97980.31;;;5.72
24201;BMP280;2801;50.972;7.856;2024-03-06T07:17:08;97985.84;;;5.76
24201;BMP280;2801;50.972;7.856;2024-03-06T07:19:35;97978.38;;;5.83
24201;BMP280;2801;50.972;7.856;2024-03-06T07:22:02;97981.50;;;5.90
24201;BMP280;2801;50.972;7.856;2024-03-06T07:24:30;97981.72;;;5.93
24201;BMP280;2801;50.972;7.856;2024-03-06T07:26:57;97981.44;;;6.00
24201;BMP280;2801;50.972;7.856;2024-03-06T07:29:24;97986.97;;;6.03
24201;BMP280;2801;50.972;7.856;2024-03-06T07:31:51;97990.38;;;6.09
24201;BMP280;2801;50.972;7.856;2024-03-06T07:34:18;97996.16;;;6.16
24201;BMP280;2801;50.972;7.856;2024-03-06T07:36:45;97998.50;;;6.22
24201;BMP280;2801;50.972;7.856;2024-03-06T07:39:15;98001.91;;;6.28
24201;BMP280;2801;50.972;7.856;2024-03-06T07:41:42;98004.75;;;6.36
24201;BMP280;2801;50.972;7.856;2024-03-06T07:44:10;98004.97;;;6.40
24201;BMP280;2801;50.972;7.856;2024-03-06T07:46:37;98005.16;;;6.48
24201;BMP280;2801;50.972;7.856;2024-03-06T07:49:04;98012.78;;;6.55
24201;BMP280;2801;50.972;7.856;2024-03-06T07:51:35;98019.41;;;6.57
24201;BMP280;2801;50.972;7.856;2024-03-06T07:54:05;98015.41;;;6.60
24201;BMP280;2801;50.972;7.856;2024-03-06T07:56:33;98026.50;;;6.67
24201;BMP280;2801;50.972;7.856;2024-03-06T07:59:00;98021.91;;;6.72
24201;BMP280;2801;50.972;7.856;2024-03-06T08:01:28;98027.25;;;6.72
24201;BMP280;2801;50.972;7.856;2024-03-06T08:03:56;98020.25;;;6.76
24201;BMP280;2801;50.972;7.856;2024-03-06T08:06:23;98021.00;;;6.82
24201;BMP280;2801;50.972;7.856;2024-03-06T08:08:50;98021.50;;;6.84
24201;BMP280;2801;50.972;7.856;2024-03-06T08:11:18;98025.75;;;6.85
24201;BMP280;2801;50.972;7.856;2024-03-06T08:13:49;98017.47;;;6.86
24201;BMP280;2801;50.972;7.856;2024-03-06T08:16:16;98028.94;;;6.87
24201;BMP280;2801;50.972;7.856;2024-03-06T08:18:44;98029.41;;;6.94
24201;BMP280;2801;50.972;7.856;2024-03-06T08:21:11;98036.88;;;6.92
24201;BMP280;2801;50.972;7.856;2024-03-06T08:23:38;98032.06;;;6.94
24201;BMP280;2801;50.972;7.856;2024-03-06T08:26:05;98038.97;;;6.95
24201;BMP280;2801;50.972;7.856;2024-03-06T08:28:32;98037.03;;;7.00
24201;BMP280;2801;50.972;7.856;2024-03-06T08:31:00;98037.50;;;7.07
24201;BMP280;2801;50.972;7.856;2024-03-06T08:33:27;98042.19;;;7.15
24201;BMP280;2801;50.972;7.856;2024-03-06T08:35:57;98041.28;;;7.20
24201;BMP280;2801;50.972;7.856;2024-03-06T08:38:25;98046.75;;;7.33
24201;BMP280;2801;50.972;7.856;2024-03-06T08:40:52;98045.50;;;7.44
24201;BMP280;2801;50.972;7.856;2024-03-06T08:43:19;98048.75;;;7.41
24201;BMP280;2801;50.972;7.856;2024-03-06T08:45:46;98045.13;;;7.32
24201;BMP280;2801;50.972;7.856;2024-03-06T08:48:14;98047.34;;;7.25
24201;BMP280;2801;50.972;7.856;2024-03-06T08:50:41;98059.97;;;7.20
24201;BMP280;2801;50.972;7.856;2024-03-06T08:53:08;98056.25;;;7.21
24201;BMP280;2801;50.972;7.856;2024-03-06T08:55:36;98056.88;;;7.31
24201;BMP280;2801;50.972;7.856;2024-03-06T08:58:03;98061.22;;;7.46
24201;BMP280;2801;50.972;7.856;2024-03-06T09:00:31;98061.66;;;7.53
24201;BMP280;2801;50.972;7.856;2024-03-06T09:02:58;98060.84;;;7.71
24201;BMP280;2801;50.972;7.856;2024-03-06T09:05:26;98066.06;;;7.81
24201;BMP280;2801;50.972;7.856;2024-03-06T09:07:53;98058.47;;;7.88
24201;BMP280;2801;50.972;7.856;2024-03-06T09:10:20;98065.53;;;7.98
24201;BMP280;2801;50.972;7.856;2024-03-06T09:12:47;98066.16;;;8.08
24201;BMP280;2801;50.972;7.856;2024-03-06T09:15:15;98062.63;;;8.13
24201;BMP280;2801;50.972;7.856;2024-03-06T09:17:43;98063.31;;;8.18
24201;BMP280;2801;50.972;7.856;2024-03-06T09:20:11;98060.50;;;8.28
24201;BMP280;2801;50.972;7.856;2024-03-06T09:22:41;98061.72;;;8.36
24201;BMP280;2801;50.972;7.856;2024-03-06T09:25:10;98074.50;;;8.52
24201;BMP280;2801;50.972;7.856;2024-03-06T09:27:41;98073.53;;;8.62
24201;BMP280;2801;50.972;7.856;2024-03-06T09:30:09;98071.06;;;8.79
24201;BMP280;2801;50.972;7.856;2024-03-06T09:32:37;98067.41;;;8.88
24201;BMP280;2801;50.972;7.856;2024-03-06T09:35:06;98072.06;;;8.96
24201;BMP280;2801;50.972;7.856;2024-03-06T09:37:33;98079.09;;;9.06
24201;BMP280;2801;50.972;7.856;2024-03-06T09:40:00;98075.81;;;9.09
24201;BMP280;2801;50.972;7.856;2024-03-06T09:42:27;98086.63;;;9.17
24201;BMP280;2801;50.972;7.856;2024-03-06T09:44:55;98076.31;;;9.24
24201;BMP280;2801;50.972;7.856;2024-03-06T09:47:22;98083.50;;;9.37
24201;BMP280;2801;50.972;7.856;2024-03-06T09:49:53;98083.09;;;9.44
24201;BMP280;2801;50.972;7.856;2024-03-06T09:52:24;98085.28;;;9.55
24201;BMP280;2801;50.972;7.856;2024-03-06T09:54:54;98088.41;;;9.71
24201;BMP280;2801;50.972;7.856;2024-03-06T09:57:22;98078.78;;;9.70
24201;BMP280;2801;50.972;7.856;2024-03-06T09:59:49;98085.03;;;9.79
24201;BMP280;2801;50.972;7.856;2024-03-06T10:02:38;98083.38;;;9.91
24201;BMP280;2801;50.972;7.856;2024-03-06T10:05:20;98080.75;;;10.00
24201;BMP280;2801;50.972;7.856;2024-03-06T10:07:47;98078.41;;;10.20
24201;BMP280;2801;50.972;7.856;2024-03-06T10:10:20;98087.28;;;10.51
24201;BMP280;2801;50.972;7.856;2024-03-06T10:12:50;98089.88;;;10.65
24201;BMP280;2801;50.972;7.856;2024-03-06T10:15:17;98095.78;;;10.75
24201;BMP280;2801;50.972;7.856;2024-03-06T10:17:45;98090.00;;;10.90
24201;BMP280;2801;50.972;7.856;2024-03-06T10:20:22;98083.06;;;10.89
24201;BMP280;2801;50.972;7.856;2024-03-06T10:22:52;98096.50;;;10.98
24201;BMP280;2801;50.972;7.856;2024-03-06T10:25:25;98094.94;;;10.97
24201;BMP280;2801;50.972;7.856;2024-03-06T10:30:38;98098.94;;;10.77
24201;BMP280;2801;50.972;7.856;2024-03-06T10:33:10;98088.75;;;10.57
24201;BMP280;2801;50.972;7.856;2024-03-06T10:35:43;98094.84;;;10.49
24201;BMP280;2801;50.972;7.856;2024-03-06T10:38:12;98101.78;;;10.50
24201;BMP280;2801;50.972;7.856;2024-03-06T10:40:42;98105.38;;;10.46
24201;BMP280;2801;50.972;7.856;2024-03-06T10:43:10;98100.09;;;10.32
24201;BMP280;2801;50.972;7.856;2024-03-06T10:48:15;98095.59;;;10.19
24201;BMP280;2801;50.972;7.856;2024-03-06T10:50:44;98100.94;;;10.63
24201;BMP280;2801;50.972;7.856;2024-03-06T10:53:14;98097.44;;;10.93
24201;BMP280;2801;50.972;7.856;2024-03-06T10:55:50;98091.59;;;10.91
24201;BMP280;2801;50.972;7.856;2024-03-06T10:58:19;98087.91;;;11.26
24201;BMP280;2801;50.972;7.856;2024-03-06T11:00:48;98086.56;;;11.55
24201;BMP280;2801;50.972;7.856;2024-03-06T11:03:16;98092.63;;;11.86
24201;BMP280;2801;50.972;7.856;2024-03-06T11:05:45;98094.34;;;12.07
24201;BMP280;2801;50.972;7.856;2024-03-06T11:08:15;98100.53;;;11.99
24201;BMP280;2801;50.972;7.856;2024-03-06T11:10:44;98097.84;;;11.99
24201;BMP280;2801;50.972;7.856;2024-03-06T11:13:25;98099.91;;;12.02
24201;BMP280;2801;50.972;7.856;2024-03-06T11:15:58;98091.97;;;12.14
24201;BMP280;2801;50.972;7.856;2024-03-06T11:23:30;98104.16;;;12.03
24201;BMP280;2801;50.972;7.856;2024-03-06T11:26:03;98103.81;;;12.39
24201;BMP280;2801;50.972;7.856;2024-03-06T11:28:38;98103.00;;;12.47
24201;BMP280;2801;50.972;7.856;2024-03-06T11:31:10;98104.31;;;12.41
24201;BMP280;2801;50.972;7.856;2024-03-06T11:33:45;98105.44;;;12.23
24201;BMP280;2801;50.972;7.856;2024-03-06T11:36:20;98104.00;;;12.00
24201;BMP280;2801;50.972;7.856;2024-03-06T11:41:51;98111.41;;;11.69
24201;BMP280;2801;50.972;7.856;2024-03-06T11:44:22;98102.72;;;11.63
24201;BMP280;2801;50.972;7.856;2024-03-06T11:46:58;98103.31;;;11.60
24201;BMP280;2801;50.972;7.856;2024-03-06T11:49:28;98108.41;;;11.62
24201;BMP280;2801;50.972;7.856;2024-03-06T11:51:59;98103.91;;;11.49
24201;BMP280;2801;50.972;7.856;2024-03-06T11:54:26;98105.19;;;11.60
24201;BMP280;2801;50.972;7.856;2024-03-06T11:56:58;98095.25;;;11.52
24201;BMP280;2801;50.972;7.856;2024-03-06T11:59:29;98101.56;;;11.56
24201;BMP280;2801;50.972;7.856;2024-03-06T12:01:59;98097.63;;;11.53
24201;BMP280;2801;50.972;7.856;2024-03-06T12:04:30;98103.28;;;11.52
24201;BMP280;2801;50.972;7.856;2024-03-06T12:06:58;98095.84;;;11.49
24201;BMP280;2801;50.972;7.856;2024-03-06T12:09:34;98097.13;;;11.43
24201;BMP280;2801;50.972;7.856;2024-03-06T12:12:07;98104.06;;;11.44
24201;BMP280;2801;50.972;7.856;2024-03-06T12:14:35;98101.69;;;11.42
24201;BMP280;2801;50.972;7.856;2024-03-06T12:17:03;98105.81;;;11.40
24201;BMP280;2801;50.972;7.856;2024-03-06T12:19:35;98105.78;;;11.31
24201;BMP280;2801;50.972;7.856;2024-03-06T12:22:05;98102.13;;;11.27
24201;BMP280;2801;50.972;7.856;2024-03-06T12:24:36;98104.78;;;11.18
24201;BMP280;2801;50.972;7.856;2024-03-06T12:27:06;98113.44;;;11.15
24201;BMP280;2801;50.972;7.856;2024-03-06T12:29:35;98104.31;;;11.16
24201;BMP280;2801;50.972;7.856;2024-03-06T12:32:16;98102.72;;;11.15
24201;BMP280;2801;50.972;7.856;2024-03-06T12:34:59;98113.03;;;11.22
24201;BMP280;2801;50.972;7.856;2024-03-06T12:37:32;98105.28;;;11.20
24201;BMP280;2801;50.972;7.856;2024-03-06T12:40:01;98111.41;;;11.12
24201;BMP280;2801;50.972;7.856;2024-03-06T12:42:29;98107.13;;;11.11
24201;BMP280;2801;50.972;7.856;2024-03-06T12:44:57;98116.63;;;11.17
24201;BMP280;2801;50.972;7.856;2024-03-06T12:47:24;98107.81;;;11.25
24201;BMP280;2801;50.972;7.856;2024-03-06T12:49:51;98105.94;;;11.43
24201;BMP280;2801;50.972;7.856;2024-03-06T12:52:18;98105.06;;;11.65
24201;BMP280;2801;50.972;7.856;2024-03-06T12:54:44;98100.38;;;11.87
24201;BMP280;2801;50.972;7.856;2024-03-06T12:57:11;98101.16;;;12.05
24201;BMP280;2801;50.972;7.856;2024-03-06T12:59:40;98098.31;;;12.18
24201;BMP280;2801;50.972;7.856;2024-03-06T13:02:07;98094.31;;;12.33
24201;BMP280;2801;50.972;7.856;2024-03-06T13:04:34;98091.94;;;12.48
24201;BMP280;2801;50.972;7.856;2024-03-06T13:07:01;98086.66;;;12.69
24201;BMP280;2801;50.972;7.856;2024-03-06T13:09:29;98088.19;;;12.87
24201;BMP280;2801;50.972;7.856;2024-03-06T13:11:56;98085.13;;;12.97
24201;BMP280;2801;50.972;7.856;2024-03-06T13:14:23;98091.63;;;13.04
24201;BMP280;2801;50.972;7.856;2024-03-06T13:16:50;98089.91;;;13.00
24201;BMP280;2801;50.972;7.856;2024-03-06T13:19:17;98086.44;;;12.99
24201;BMP280;2801;50.972;7.856;2024-03-06T13:21:44;98092.38;;;13.13
24201;BMP280;2801;50.972;7.856;2024-03-06T13:24:11;98089.53;;;13.18
24201;BMP280;2801;50.972;7.856;2024-03-06T13:26:45;98088.53;;;13.23
24201;BMP280;2801;50.972;7.856;2024-03-06T13:29:13;98080.97;;;13.16
24201;BMP280;2801;50.972;7.856;2024-03-06T13:31:40;98081.00;;;13.08
24201;BMP280;2801;50.972;7.856;2024-03-06T13:34:07;98082.91;;;13.07
24201;BMP280;2801;50.972;7.856;2024-03-06T13:36:37;98085.13;;;13.05
24201;BMP280;2801;50.972;7.856;2024-03-06T13:39:04;98093.72;;;12.99
24201;BMP280;2801;50.972;7.856;2024-03-06T13:41:31;98086.88;;;13.01
24201;BMP280;2801;50.972;7.856;2024-03-06T13:43:58;98088.16;;;13.04
24201;BMP280;2801;50.972;7.856;2024-03-06T13:46:25;98085.78;;;13.02
24201;BMP280;2801;50.972;7.856;2024-03-06T13:48:52;98084.06;;;12.98
24201;BMP280;2801;50.972;7.856;2024-03-06T13:51:19;98075.81;;;12.94
24201;BMP280;2801;50.972;7.856;2024-03-06T13:53:46;98086.88;;;12.93
24201;BMP280;2801;50.972;7.856;2024-03-06T13:56:13;98089.13;;;12.91
24201;BMP280;2801;50.972;7.856;2024-03-06T13:58:40;98086.78;;;12.81
24201;BMP280;2801;50.972;7.856;2024-03-06T14:01:07;98071.63;;;12.76
24201;BMP280;2801;50.972;7.856;2024-03-06T14:03:34;98079.19;;;12.83
24201;BMP280;2801;50.972;7.856;2024-03-06T14:06:05;98078.81;;;12.93
24201;BMP280;2801;50.972;7.856;2024-03-06T14:08:37;98082.16;;;12.90
24201;BMP280;2801;50.972;7.856;2024-03-06T14:11:06;98076.00;;;12.81
24201;BMP280;2801;50.972;7.856;2024-03-06T14:13:34;98081.28;;;12.69
24201;BMP280;2801;50.972;7.856;2024-03-06T14:16:01;98076.72;;;12.69
24201;BMP280;2801;50.972;7.856;2024-03-06T14:18:28;98086.00;;;12.80
24201;BMP280;2801;50.972;7.856;2024-03-06T14:20:55;98085.94;;;12.89
24201;BMP280;2801;50.972;7.856;2024-03-06T14:23:22;98087.09;;;12.79
24201;BMP280;2801;50.972;7.856;2024-03-06T14:25:50;98084.28;;;12.67
24201;BMP280;2801;50.972;7.856;2024-03-06T14:28:17;98091.94;;;12.48
24201;BMP280;2801;50.972;7.856;2024-03-06T14:30:44;98097.13;;;12.53
24201;BMP280;2801;50.972;7.856;2024-03-06T14:33:12;98095.06;;;12.59
24201;BMP280;2801;50.972;7.856;2024-03-06T14:35:39;98090.47;;;12.68
24201;BMP280;2801;50.972;7.856;2024-03-06T14:38:06;98093.47;;;12.66
24201;BMP280;2801;50.972;7.856;2024-03-06T14:40:33;98086.53;;;12.65
24201;BMP280;2801;50.972;7.856;2024-03-06T14:43:00;98088.91;;;12.58
24201;BMP280;2801;50.972;7.856;2024-03-06T14:45:28;98099.19;;;12.56
24201;BMP280;2801;50.972;7.856;2024-03-06T14:47:55;98092.25;;;12.55
24201;BMP280;2801;50.972;7.856;2024-03-06T14:50:23;98086.72;;;12.52
24201;BMP280;2801;50.972;7.856;2024-03-06T14:52:53;98093.38;;;12.46
24201;BMP280;2801;50.972;7.856;2024-03-06T14:55:19;98093.38;;;12.29
24201;BMP280;2801;50.972;7.856;2024-03-06T14:57:47;98095.94;;;12.25
24201;BMP280;2801;50.972;7.856;2024-03-06T15:00:14;98092.16;;;12.18